createdAt,value
2018-07-06T00:02:22.443Z,100950.16
2018-07-06T00:05:02.834Z,100954.91
2018-07-06T00:07:42.744Z,100956.14
2018-07-06T00:10:22.917Z,100953.25
2018-07-06T00:13:03.058Z,100951.38
2018-07-06T00:15:43.132Z,100958.16
2018-07-06T00:18:23.314Z,100956.90
2018-07-06T00:21:03.627Z,100959.49
2018-07-06T00:23:43.771Z,100963.46
2018-07-06T00:26:23.987Z,100961.70
2018-07-06T00:29:04.059Z,100958.55
2018-07-06T00:31:44.381Z,100960.52
2018-07-06T00:34:24.386Z,100959.75
2018-07-06T00:37:04.534Z,100959.44
2018-07-06T00:39:44.599Z,100968.02
2018-07-06T00:42:24.754Z,100968.51
2018-07-06T00:45:04.924Z,100964.96
2018-07-06T00:47:44.893Z,100964.87
2018-07-06T00:50:25.009Z,100971.22
2018-07-06T00:53:05.290Z,100971.92
2018-07-06T00:55:45.221Z,100969.48
2018-07-06T00:58:25.413Z,100964.94
2018-07-06T01:01:05.541Z,100976.48
2018-07-06T01:03:45.773Z,100972.13
2018-07-06T01:06:25.867Z,100974.42
2018-07-06T01:09:06.031Z,100976.48
2018-07-06T01:11:46.187Z,100977.51
2018-07-06T01:14:26.171Z,100977.81
2018-07-06T01:17:10.562Z,100978.00
2018-07-06T01:19:51.178Z,100973.09
2018-07-06T01:22:31.373Z,100985.23
2018-07-06T01:25:11.426Z,100986.12
2018-07-06T01:27:51.648Z,100992.77
2018-07-06T01:30:31.706Z,100994.42
2018-07-06T01:33:11.848Z,101004.30
2018-07-06T01:35:51.902Z,101003.63
2018-07-06T01:38:32.143Z,100999.99
2018-07-06T01:41:12.120Z,100999.57
2018-07-06T01:43:52.271Z,100998.13
2018-07-06T01:46:32.167Z,101003.09
2018-07-06T01:49:12.348Z,101004.94
2018-07-06T01:51:52.881Z,101005.61
2018-07-06T01:54:33.061Z,101009.77
2018-07-06T01:57:13.067Z,101009.27
2018-07-06T01:59:53.194Z,101016.34
2018-07-06T02:02:33.437Z,101015.17
2018-07-06T02:05:13.510Z,101013.84
2018-07-06T02:07:53.685Z,101019.52
2018-07-06T02:10:33.780Z,101016.20
2018-07-06T02:13:14.435Z,101013.64
2018-07-06T02:15:54.687Z,101017.06
2018-07-06T02:18:34.739Z,101019.30
2018-07-06T02:21:14.891Z,101020.86
2018-07-06T02:23:54.880Z,101016.66
2018-07-06T02:26:35.054Z,101026.00
2018-07-06T02:29:15.141Z,101027.74
2018-07-06T02:31:55.299Z,101023.28
2018-07-06T02:34:35.391Z,101031.13
2018-07-06T02:37:15.642Z,101035.59
2018-07-06T02:39:55.831Z,101032.46
2018-07-06T02:42:36.608Z,101040.47
2018-07-06T02:45:16.831Z,101043.31
2018-07-06T02:47:56.879Z,101042.85
2018-07-06T02:50:37.031Z,101049.19
2018-07-06T02:53:17.219Z,101051.55
2018-07-06T02:55:57.265Z,101037.49
2018-07-06T02:58:37.422Z,101059.28
2018-07-06T03:01:17.914Z,101052.42
2018-07-06T03:03:57.978Z,101047.75
2018-07-06T03:06:38.278Z,101061.38
2018-07-06T03:09:18.307Z,101062.36
2018-07-06T03:11:58.409Z,101060.08
2018-07-06T03:14:38.435Z,101064.13
2018-07-06T03:17:18.596Z,101070.19
2018-07-06T03:19:58.601Z,101076.56
2018-07-06T03:22:38.603Z,101072.06
2018-07-06T03:25:18.816Z,101073.74
2018-07-06T03:27:59.186Z,101070.22
2018-07-06T03:30:39.310Z,101060.68
2018-07-06T03:33:19.487Z,101081.92
2018-07-06T03:36:00.691Z,101082.41
2018-07-06T03:38:40.840Z,101089.46
2018-07-06T03:41:20.939Z,101088.63
2018-07-06T03:44:01.110Z,101090.66
2018-07-06T03:46:41.244Z,101087.64
2018-07-06T03:49:21.476Z,101095.48
2018-07-06T03:52:01.495Z,101092.14
2018-07-06T03:54:41.776Z,101093.98
2018-07-06T03:57:21.847Z,101096.52
2018-07-06T04:00:06.744Z,101099.36
2018-07-06T04:02:46.821Z,101101.17
2018-07-06T04:05:26.988Z,101110.06
2018-07-06T04:08:06.974Z,101107.73
2018-07-06T04:10:47.127Z,101111.38
2018-07-06T04:13:27.117Z,101108.72
2018-07-06T04:16:07.804Z,101105.66
2018-07-06T04:18:47.853Z,101121.52
2018-07-06T04:21:27.919Z,101119.01
2018-07-06T04:24:08.583Z,101124.70
2018-07-06T04:26:48.803Z,101122.04
2018-07-06T04:29:28.911Z,101119.69
2018-07-06T04:32:09.118Z,101129.47
2018-07-06T04:34:49.105Z,101130.25
2018-07-06T04:37:29.742Z,101135.45
2018-07-06T04:40:11.846Z,101137.60
2018-07-06T04:42:52.040Z,101137.60
2018-07-06T04:45:32.042Z,101142.97
2018-07-06T04:48:12.286Z,101148.98
2018-07-06T04:50:52.251Z,101140.27
2018-07-06T04:53:32.583Z,101141.73
2018-07-06T04:56:13.255Z,101143.73
2018-07-06T04:58:53.369Z,101143.69
2018-07-06T05:01:33.867Z,101149.05
2018-07-06T05:04:14.000Z,101151.08
2018-07-06T05:06:54.121Z,101151.44
2018-07-06T05:09:34.147Z,101152.55
2018-07-06T05:12:14.783Z,101156.75
2018-07-06T05:14:55.063Z,101150.75
2018-07-06T05:17:35.118Z,101162.12
2018-07-06T05:20:15.066Z,101157.94
2018-07-06T05:22:55.054Z,101162.41
2018-07-06T05:25:35.296Z,101168.05
2018-07-06T05:28:15.226Z,101171.64
2018-07-06T05:30:55.288Z,101178.67
2018-07-06T05:33:35.334Z,101180.72
2018-07-06T05:36:15.579Z,101179.25
2018-07-06T05:38:55.657Z,101178.50
2018-07-06T05:41:35.795Z,101183.84
2018-07-06T05:44:16.270Z,101184.66
2018-07-06T05:46:56.330Z,101186.88
2018-07-06T05:49:36.555Z,101193.13
2018-07-06T05:52:16.675Z,101195.34
2018-07-06T05:54:56.562Z,101200.94
2018-07-06T05:57:36.790Z,101201.66
2018-07-06T06:00:18.380Z,101210.88
2018-07-06T06:02:58.483Z,101207.00
2018-07-06T06:05:38.615Z,101210.42
2018-07-06T06:08:06.419Z,101217.14
2018-07-06T06:10:35.847Z,101215.30
2018-07-06T06:13:05.191Z,101217.08
2018-07-06T06:15:34.281Z,101222.30
2018-07-06T06:18:03.236Z,101222.27
2018-07-06T06:20:32.486Z,101220.39
2018-07-06T06:23:02.450Z,101221.62
2018-07-06T06:25:32.278Z,101228.52
2018-07-06T06:28:01.706Z,101233.17
2018-07-06T06:30:30.875Z,101224.39
2018-07-06T06:33:00.029Z,101229.36
2018-07-06T06:35:30.722Z,101228.62
2018-07-06T06:38:00.038Z,101235.84
2018-07-06T06:40:29.631Z,101237.79
2018-07-06T06:42:59.151Z,101238.27
2018-07-06T06:45:28.423Z,101236.83
2018-07-06T06:47:57.403Z,101245.75
2018-07-06T06:50:26.661Z,101246.39
2018-07-06T06:52:55.884Z,101246.47
2018-07-06T06:55:25.023Z,101248.94
2018-07-06T06:57:54.575Z,101250.50
2018-07-06T07:00:27.533Z,101252.25
2018-07-06T07:02:53.271Z,101248.76
2018-07-06T07:05:22.536Z,101259.42
2018-07-06T07:07:52.870Z,101259.10
2018-07-06T07:10:22.066Z,101262.70
2018-07-06T07:12:51.392Z,101266.64
2018-07-06T07:15:20.438Z,101263.19
2018-07-06T07:17:49.733Z,101262.38
2018-07-06T07:20:19.545Z,101262.77
2018-07-06T07:22:48.739Z,101265.69
2018-07-06T07:25:17.875Z,101264.71
2018-07-06T07:27:47.189Z,101269.97
2018-07-06T07:30:16.437Z,101276.20
2018-07-06T07:32:46.203Z,101279.14
2018-07-06T07:35:15.200Z,101275.16
2018-07-06T07:37:45.177Z,101271.79
2018-07-06T07:40:14.375Z,101279.32
2018-07-06T07:42:43.919Z,101280.78
2018-07-06T07:45:13.132Z,101279.11
2018-07-06T07:47:42.449Z,101276.81
2018-07-06T07:50:11.588Z,101287.26
2018-07-06T07:52:52.307Z,101284.02
2018-07-06T07:55:21.455Z,101281.33
2018-07-06T07:57:50.750Z,101280.91
2018-07-06T08:00:20.790Z,101285.47
2018-07-06T08:02:49.996Z,101285.79
2018-07-06T08:05:19.254Z,101278.48
2018-07-06T08:07:48.350Z,101276.54
2018-07-06T08:10:18.275Z,101280.47
2018-07-06T08:12:47.601Z,101278.61
2018-07-06T08:15:17.040Z,101277.56
2018-07-06T08:17:46.150Z,101280.36
2018-07-06T08:20:15.367Z,101289.27
2018-07-06T08:22:44.872Z,101291.28
2018-07-06T08:25:13.929Z,101294.89
2018-07-06T08:27:42.908Z,101304.11
2018-07-06T08:30:12.096Z,101301.28
2018-07-06T08:32:41.155Z,101305.09
2018-07-06T08:35:21.282Z,101310.38
2018-07-06T08:38:05.873Z,101316.46
2018-07-06T08:40:35.446Z,101317.58
2018-07-06T08:43:05.923Z,101318.14
2018-07-06T08:45:35.791Z,101310.05
2018-07-06T08:48:04.890Z,101311.77
2018-07-06T08:50:33.841Z,101319.77
2018-07-06T08:53:03.011Z,101321.72
2018-07-06T08:55:32.242Z,101323.52
2018-07-06T08:58:01.363Z,101327.63
2018-07-06T09:00:30.348Z,101324.64
2018-07-06T09:02:59.454Z,101327.64
2018-07-06T09:05:28.553Z,101325.27
2018-07-06T09:07:58.078Z,101325.03
2018-07-06T09:10:27.584Z,101330.62
2018-07-06T09:12:56.750Z,101325.41
2018-07-06T09:15:25.937Z,101330.67
2018-07-06T09:17:54.912Z,101325.73
2018-07-06T09:20:24.345Z,101332.16
2018-07-06T09:22:53.546Z,101328.22
2018-07-06T09:25:23.040Z,101342.05
2018-07-06T09:27:52.048Z,101342.65
2018-07-06T09:30:21.138Z,101347.02
2018-07-06T09:32:50.072Z,101346.41
2018-07-06T09:35:19.330Z,101351.80
2018-07-06T09:37:49.112Z,101349.61
2018-07-06T09:40:18.236Z,101352.45
2018-07-06T09:42:49.036Z,101356.39
2018-07-06T09:45:18.292Z,101353.27
2018-07-06T09:47:48.251Z,101354.83
2018-07-06T09:50:17.487Z,101355.77
2018-07-06T09:52:46.440Z,101351.15
2018-07-06T09:55:15.571Z,101349.01
2018-07-06T09:57:44.674Z,101348.67
2018-07-06T10:00:18.549Z,101349.53
2018-07-06T10:02:47.862Z,101341.82
2018-07-06T10:05:16.891Z,101342.36
2018-07-06T10:07:45.814Z,101342.25
2018-07-06T10:10:15.027Z,101337.59
2018-07-06T10:12:44.049Z,101340.05
2018-07-06T10:15:13.465Z,101341.47
2018-07-06T10:17:42.653Z,101333.08
2018-07-06T10:20:11.755Z,101331.23
2018-07-06T10:22:40.850Z,101335.52
2018-07-06T10:25:10.213Z,101336.52
2018-07-06T10:27:51.024Z,101336.97
2018-07-06T10:30:33.690Z,101337.42
2018-07-06T10:33:03.312Z,101336.85
2018-07-06T10:35:32.641Z,101336.72
2018-07-06T10:38:01.958Z,101336.93
2018-07-06T10:40:31.194Z,101330.50
2018-07-06T10:43:00.531Z,101326.97
2018-07-06T10:45:29.690Z,101330.11
2018-07-06T10:47:58.928Z,101333.85
2018-07-06T10:50:28.034Z,101338.08
2018-07-06T10:52:57.195Z,101337.33
2018-07-06T10:55:26.432Z,101341.17
2018-07-06T10:57:56.226Z,101341.19
2018-07-06T11:00:25.454Z,101342.58
2018-07-06T11:02:54.515Z,101337.97
2018-07-06T11:05:23.795Z,101335.75
2018-07-06T11:07:53.061Z,101337.33
2018-07-06T11:10:22.268Z,101326.44
2018-07-06T11:12:51.280Z,101338.64
2018-07-06T11:15:20.844Z,101335.44
2018-07-06T11:17:49.976Z,101336.52
2018-07-06T11:20:19.120Z,101334.52
2018-07-06T11:22:48.192Z,101330.67
2018-07-06T11:25:17.132Z,101333.27
2018-07-06T11:27:46.202Z,101323.05
2018-07-06T11:30:15.499Z,101333.73
2018-07-06T11:32:44.795Z,101330.54
2018-07-06T11:35:13.889Z,101323.09
2018-07-06T11:37:42.985Z,101329.84
2018-07-06T11:40:12.090Z,101325.75
2018-07-06T11:42:41.189Z,101322.77
2018-07-06T11:45:10.382Z,101324.69
2018-07-06T11:47:39.556Z,101321.53
2018-07-06T11:50:08.613Z,101318.50
2018-07-06T11:52:37.856Z,101325.36
2018-07-06T11:55:07.084Z,101323.35
2018-07-06T11:57:36.267Z,101319.30
2018-07-06T12:00:07.257Z,101325.86
2018-07-06T12:02:36.425Z,101322.30
2018-07-06T12:05:05.769Z,101316.27
2018-07-06T12:07:34.881Z,101312.97
2018-07-06T12:10:06.958Z,101310.08
2018-07-06T12:12:35.909Z,101315.78
2018-07-06T12:15:05.542Z,101317.43
2018-07-06T12:17:35.430Z,101308.80
2018-07-06T12:20:09.366Z,101301.37
2018-07-06T12:22:38.483Z,101309.64
2018-07-06T12:25:07.900Z,101306.45
2018-07-06T12:27:37.096Z,101313.16
2018-07-06T12:30:07.606Z,101305.23
2018-07-06T12:32:37.530Z,101308.58
2018-07-06T12:35:06.642Z,101301.63
2018-07-06T12:37:35.963Z,101308.75
2018-07-06T12:40:08.383Z,101302.86
2018-07-06T12:42:37.594Z,101303.83
2018-07-06T12:45:06.711Z,101311.56
2018-07-06T12:47:36.036Z,101294.84
2018-07-06T12:50:08.874Z,101298.72
2018-07-06T12:52:38.873Z,101293.02
2018-07-06T12:55:07.948Z,101304.04
2018-07-06T12:57:37.233Z,101305.02
2018-07-06T13:00:11.231Z,101305.40
2018-07-06T13:02:41.503Z,101305.73
2018-07-06T13:05:10.707Z,101302.63
2018-07-06T13:07:39.817Z,101294.62
2018-07-06T13:10:09.337Z,101306.27
2018-07-06T13:12:38.397Z,101305.09
2018-07-06T13:15:07.711Z,101304.42
2018-07-06T13:17:36.886Z,101302.54
2018-07-06T13:20:09.667Z,101293.02
2018-07-06T13:22:39.110Z,101296.11
2018-07-06T13:25:08.719Z,101295.64
2018-07-06T13:27:37.944Z,101301.65
2018-07-06T13:30:09.292Z,101304.14
2018-07-06T13:32:38.569Z,101295.27
2018-07-06T13:35:08.536Z,101293.86
2018-07-06T13:37:37.746Z,101298.22
2018-07-06T13:40:10.779Z,101294.79
2018-07-06T13:42:39.943Z,101294.45
2018-07-06T13:45:09.440Z,101294.61
2018-07-06T13:47:38.583Z,101295.63
2018-07-06T13:50:08.967Z,101294.20
2018-07-06T13:52:38.147Z,101297.78
2018-07-06T13:55:07.975Z,101302.02
2018-07-06T13:57:37.121Z,101308.41
2018-07-06T14:00:07.965Z,101302.20
2018-07-06T14:02:37.211Z,101298.89
2018-07-06T14:05:07.383Z,101303.52
2018-07-06T14:07:36.750Z,101291.08
2018-07-06T14:10:10.222Z,101288.58
2018-07-06T14:12:39.238Z,101285.53
2018-07-06T14:15:09.196Z,101291.13
2018-07-06T14:17:38.342Z,101297.91
2018-07-06T14:20:14.846Z,101250.90
2018-07-06T14:22:44.217Z,101284.09
2018-07-06T14:25:13.508Z,101282.41
2018-07-06T14:27:42.690Z,101279.05
2018-07-06T14:30:12.507Z,101276.20
2018-07-06T14:32:41.673Z,101276.56
2018-07-06T14:35:12.320Z,101276.50
2018-07-06T14:37:41.688Z,101280.89
2018-07-06T14:40:12.343Z,101279.58
2018-07-06T14:42:41.689Z,101277.70
2018-07-06T14:45:11.256Z,101254.55
2018-07-06T14:47:40.514Z,101269.34
2018-07-06T14:50:09.848Z,101272.77
2018-07-06T14:52:39.377Z,101276.26
2018-07-06T14:55:09.475Z,101268.86
2018-07-06T14:57:38.941Z,101278.45
2018-07-06T15:00:13.911Z,101270.70
2018-07-06T15:02:43.206Z,101273.70
2018-07-06T15:05:12.834Z,101270.97
2018-07-06T15:07:42.183Z,101269.89
2018-07-06T15:10:12.509Z,101264.03
2018-07-06T15:12:41.828Z,101272.86
2018-07-06T15:15:11.359Z,101273.61
2018-07-06T15:17:40.377Z,101278.89
2018-07-06T15:20:10.270Z,101283.41
2018-07-06T15:22:39.878Z,101282.90
2018-07-06T15:25:11.639Z,101291.53
2018-07-06T15:27:41.327Z,101296.19
2018-07-06T15:30:10.647Z,101293.00
2018-07-06T15:32:39.750Z,101300.37
2018-07-06T15:35:08.923Z,101302.35
2018-07-06T15:37:39.049Z,101308.98
2018-07-06T15:40:11.335Z,101314.25
2018-07-06T15:42:41.151Z,101314.05
2018-07-06T15:45:10.539Z,101300.80
2018-07-06T15:47:39.585Z,101315.37
2018-07-06T15:50:12.993Z,101320.24
2018-07-06T15:52:42.215Z,101324.71
2018-07-06T15:55:11.347Z,101318.19
2018-07-06T15:57:40.335Z,101325.92
2018-07-06T16:00:14.688Z,101321.81
2018-07-06T16:02:44.859Z,101322.63
2018-07-06T16:05:15.651Z,101317.68
2018-07-06T16:07:44.599Z,101321.27
2018-07-06T16:10:14.480Z,101319.41
2018-07-06T16:12:43.742Z,101320.86
2018-07-06T16:15:14.222Z,101318.35
2018-07-06T16:17:43.545Z,101322.81
2018-07-06T16:20:15.079Z,101315.31
2018-07-06T16:22:44.255Z,101310.91
2018-07-06T16:25:14.394Z,101309.09
2018-07-06T16:27:44.306Z,101304.53
2018-07-06T16:30:15.169Z,101300.95
2018-07-06T16:32:45.466Z,101296.70
2018-07-06T16:35:15.131Z,101294.58
2018-07-06T16:37:44.671Z,101293.46
2018-07-06T16:40:16.013Z,101290.28
2018-07-06T16:42:46.915Z,101287.13
2018-07-06T16:45:17.716Z,101289.77
2018-07-06T16:47:46.876Z,101286.48
2018-07-06T16:50:16.564Z,101288.45
2018-07-06T16:52:45.588Z,101279.80
2018-07-06T16:55:14.683Z,101281.37
2018-07-06T16:57:43.682Z,101279.41
2018-07-06T17:00:15.976Z,101283.09
2018-07-06T17:02:45.275Z,101286.97
2018-07-06T17:05:14.575Z,101290.49
2018-07-06T17:07:44.740Z,101284.80
2018-07-06T17:10:14.705Z,101282.34
2018-07-06T17:12:44.646Z,101285.31
2018-07-06T17:15:13.895Z,101282.89
2018-07-06T17:17:42.928Z,101277.24
2018-07-06T17:20:14.369Z,101283.65
2018-07-06T17:22:43.376Z,101279.80
2018-07-06T17:25:12.531Z,101288.09
2018-07-06T17:27:41.591Z,101287.76
2018-07-06T17:30:14.008Z,101293.16
2018-07-06T17:32:43.059Z,101292.77
2018-07-06T17:35:12.090Z,101291.34
2018-07-06T17:37:43.238Z,101296.84
2018-07-06T17:40:15.716Z,101294.93
2018-07-06T17:42:45.147Z,101291.34
2018-07-06T17:45:14.166Z,101294.61
2018-07-06T17:47:43.378Z,101288.73
2018-07-06T17:50:13.031Z,101290.39
2018-07-06T17:52:42.226Z,101290.00
2018-07-06T17:55:11.836Z,101290.33
2018-07-06T17:57:41.779Z,101290.05
2018-07-06T18:00:13.565Z,101295.08
2018-07-06T18:02:44.807Z,101295.54
2018-07-06T18:05:14.615Z,101294.98
2018-07-06T18:07:44.681Z,101291.12
2018-07-06T18:10:17.340Z,101292.98
2018-07-06T18:12:47.473Z,101295.83
2018-07-06T18:15:16.797Z,101297.05
2018-07-06T18:17:46.686Z,101296.66
2018-07-06T18:20:17.215Z,101298.36
2018-07-06T18:22:47.138Z,101299.20
2018-07-06T18:25:16.434Z,101290.51
2018-07-06T18:27:45.730Z,101296.97
2018-07-06T18:30:15.737Z,101294.60
2018-07-06T18:32:46.077Z,101293.80
2018-07-06T18:35:16.472Z,101302.03
2018-07-06T18:37:46.067Z,101296.30
2018-07-06T18:40:16.007Z,101298.91
2018-07-06T18:42:45.915Z,101300.77
2018-07-06T18:45:15.417Z,101299.66
2018-07-06T18:47:45.734Z,101301.42
2018-07-06T18:50:15.874Z,101295.14
2018-07-06T18:52:45.069Z,101296.61
2018-07-06T18:55:14.595Z,101296.91
2018-07-06T18:57:43.637Z,101301.11
2018-07-06T19:00:14.380Z,101302.77
2018-07-06T19:02:43.381Z,101308.56
2018-07-06T19:05:13.817Z,101305.38
2018-07-06T19:07:43.073Z,101304.13
2018-07-06T19:10:16.036Z,101312.47
2018-07-06T19:12:45.235Z,101311.69
2018-07-06T19:15:14.395Z,101309.28
2018-07-06T19:17:43.431Z,101311.98
2018-07-06T19:20:14.210Z,101313.05
2018-07-06T19:22:44.357Z,101323.41
2018-07-06T19:25:14.260Z,101330.57
2018-07-06T19:27:44.189Z,101332.57
2018-07-06T19:30:14.388Z,101336.71
2018-07-06T19:32:43.716Z,101335.36
2018-07-06T19:35:13.597Z,101341.80
2018-07-06T19:37:42.731Z,101344.30
2018-07-06T19:40:14.363Z,101348.05
2018-07-06T19:42:43.509Z,101352.02
2018-07-06T19:45:12.814Z,101355.97
2018-07-06T19:47:42.492Z,101357.06
2018-07-06T19:50:14.975Z,101360.70
2018-07-06T19:52:44.322Z,101365.77
2018-07-06T19:55:14.285Z,101365.59
2018-07-06T19:57:44.312Z,101370.28
2018-07-06T20:00:15.748Z,101374.34
2018-07-06T20:02:46.476Z,101366.72
2018-07-06T20:05:15.878Z,101377.22
2018-07-06T20:07:45.405Z,101382.39
2018-07-06T20:10:17.280Z,101385.58
2018-07-06T20:12:46.863Z,101389.75
2018-07-06T20:15:16.076Z,101396.50
2018-07-06T20:17:45.407Z,101393.92
2018-07-06T20:20:15.067Z,101393.13
2018-07-06T20:22:44.570Z,101398.55
2018-07-06T20:25:13.819Z,101400.66
2018-07-06T20:27:42.962Z,101406.13
2018-07-06T20:30:14.932Z,101415.40
2018-07-06T20:32:44.566Z,101415.68
2018-07-06T20:35:14.155Z,101415.92
2018-07-06T20:37:43.575Z,101417.59
2018-07-06T20:40:15.551Z,101414.35
2018-07-06T20:42:45.928Z,101418.05
2018-07-06T20:45:15.150Z,101405.28
2018-07-06T20:47:44.308Z,101411.31
2018-07-06T20:50:17.382Z,101409.07
2018-07-06T20:52:46.683Z,101407.28
2018-07-06T20:55:16.982Z,101406.98
2018-07-06T20:57:46.295Z,101408.88
2018-07-06T21:00:17.443Z,101409.19
2018-07-06T21:02:46.631Z,101412.25
2018-07-06T21:05:15.942Z,101419.72
2018-07-06T21:07:46.394Z,101418.94
2018-07-06T21:10:15.967Z,101426.27
2018-07-06T21:12:45.531Z,101426.91
2018-07-06T21:15:14.947Z,101423.26
2018-07-06T21:17:44.035Z,101428.66
2018-07-06T21:20:13.542Z,101428.88
2018-07-06T21:22:43.568Z,101437.53
2018-07-06T21:25:12.619Z,101428.05
2018-07-06T21:27:41.916Z,101434.95
2018-07-06T21:30:11.369Z,101435.24
2018-07-06T21:32:41.420Z,101435.57
2018-07-06T21:35:10.563Z,101436.06
2018-07-06T21:37:39.806Z,101440.50
2018-07-06T21:40:09.312Z,101439.05
2018-07-06T21:42:38.836Z,101423.80
2018-07-06T21:45:08.179Z,101438.20
2018-07-06T21:47:37.171Z,101438.02
2018-07-06T21:50:08.634Z,101441.34
2018-07-06T21:52:38.779Z,101436.94
2018-07-06T21:55:07.836Z,101446.55
2018-07-06T21:57:37.441Z,101443.32
2018-07-06T22:00:08.330Z,101446.40
2018-07-06T22:02:38.181Z,101443.83
2018-07-06T22:05:07.630Z,101444.06
2018-07-06T22:07:37.292Z,101447.25
2018-07-06T22:10:08.375Z,101451.59
2018-07-06T22:12:37.620Z,101457.03
2018-07-06T22:15:06.765Z,101456.70
2018-07-06T22:17:35.772Z,101456.42
2018-07-06T22:20:08.181Z,101457.55
2018-07-06T22:22:37.465Z,101459.08
2018-07-06T22:25:07.145Z,101459.92
2018-07-06T22:27:36.102Z,101454.93
2018-07-06T22:30:08.452Z,101461.56
2018-07-06T22:32:37.474Z,101462.13
2018-07-06T22:35:06.641Z,101462.03
2018-07-06T22:37:35.759Z,101463.07
2018-07-06T22:40:08.170Z,101466.00
2018-07-06T22:42:37.131Z,101464.59
2018-07-06T22:45:06.215Z,101465.38
2018-07-06T22:47:35.142Z,101466.00
2018-07-06T22:50:07.263Z,101460.20
2018-07-06T22:52:36.219Z,101469.73
2018-07-06T22:55:05.417Z,101463.54
2018-07-06T22:57:34.393Z,101464.56
2018-07-06T23:00:06.782Z,101465.27
2018-07-06T23:02:36.018Z,101465.17
2018-07-06T23:05:10.872Z,101458.34
2018-07-06T23:07:39.897Z,101464.52
2018-07-06T23:10:09.082Z,101454.81
2018-07-06T23:12:39.219Z,101463.62
2018-07-06T23:15:08.202Z,101377.15
2018-07-06T23:17:37.179Z,101468.51
2018-07-06T23:20:10.656Z,101465.66
2018-07-06T23:23:05.597Z,101467.58
2018-07-06T23:25:35.999Z,101461.03
2018-07-06T23:28:05.044Z,101462.73
2018-07-06T23:30:34.363Z,101468.30
2018-07-06T23:33:04.639Z,101469.55
2018-07-06T23:35:33.874Z,101460.77
2018-07-06T23:38:02.904Z,101468.53
2018-07-06T23:40:32.128Z,101471.72
2018-07-06T23:43:01.088Z,101467.37
2018-07-06T23:45:30.184Z,101473.71
2018-07-06T23:47:59.161Z,101471.59
2018-07-06T23:50:28.365Z,101474.61
2018-07-06T23:52:57.510Z,101477.44
2018-07-06T23:55:26.521Z,101478.65
2018-07-06T23:57:55.686Z,101481.16
